createdAt,value
2018-01-20T00:06:42.389Z,1001.1
2018-01-20T00:16:56.412Z,1001.1
2018-01-20T00:27:11.979Z,1001.1
2018-01-20T00:37:26.288Z,1001.1
2018-01-20T00:47:41.830Z,1001
2018-01-20T00:57:56.254Z,1000.9
2018-01-20T01:08:11.466Z,1000.8
2018-01-20T01:18:26.881Z,1000.7
2018-01-20T01:28:41.998Z,1000.7
2018-01-20T01:38:56.631Z,1000.7
2018-01-20T01:49:11.030Z,1000.7
2018-01-20T01:59:26.558Z,1000.8
2018-01-20T02:09:41.226Z,1000.7
2018-01-20T02:19:56.094Z,1000.8
2018-01-20T02:30:10.202Z,1000.7
2018-01-20T02:40:23.802Z,1000.8
2018-01-20T02:50:37.902Z,1000.8
2018-01-20T03:00:52.841Z,1000.7
2018-01-20T03:11:07.035Z,1000.5
2018-01-20T03:21:22.513Z,1000.5
2018-01-20T03:31:37.125Z,1000.3
2018-01-20T03:41:51.250Z,1000.2
2018-01-20T03:52:06.860Z,1000.1
2018-01-20T04:02:20.760Z,1000
2018-01-20T04:12:35.946Z,999.8
2018-01-20T04:22:50.407Z,999.9
2018-01-20T04:33:04.393Z,999.7
2018-01-20T04:43:19.842Z,999.6
2018-01-20T04:53:34.117Z,999.6
2018-01-20T05:03:48.923Z,999.5
2018-01-20T05:14:04.490Z,999.4
2018-01-20T05:24:18.742Z,999.4
2018-01-20T05:34:33.820Z,999.4
2018-01-20T05:44:49.239Z,999.3
2018-01-20T05:55:03.562Z,999.3
2018-01-20T06:05:18.074Z,999.3
2018-01-20T06:15:33.320Z,999.3
2018-01-20T06:25:48.160Z,999.2
2018-01-20T06:36:02.824Z,999.2
2018-01-20T06:46:17.288Z,999.3
2018-01-20T06:56:32.028Z,999.1
2018-01-20T07:06:46.331Z,999
2018-01-20T07:17:01.833Z,999.1
2018-01-20T07:27:16.246Z,999.1
2018-01-20T07:37:31.246Z,999
2018-01-20T07:47:46.164Z,999
2018-01-20T07:58:01.150Z,999
2018-01-20T08:08:16.272Z,998.9
2018-01-20T08:18:31.210Z,998.8
2018-01-20T08:28:45.861Z,998.9
2018-01-20T08:39:00.683Z,999
2018-01-20T08:49:14.973Z,998.9
2018-01-20T08:59:29.682Z,998.7
2018-01-20T09:09:44.060Z,998.7
2018-01-20T09:19:58.632Z,998.6
2018-01-20T09:30:12.964Z,998.6
2018-01-20T09:40:26.967Z,998.5
2018-01-20T09:50:40.989Z,998.4
2018-01-20T10:00:55.372Z,998.2
2018-01-20T10:11:10.937Z,998.1
2018-01-20T10:21:24.740Z,998.1
2018-01-20T10:41:52.858Z,997.8
2018-01-20T10:52:06.562Z,997.6
2018-01-20T11:02:20.645Z,997.5
2018-01-20T11:12:34.521Z,997.3
2018-01-20T11:22:48.878Z,997.2
2018-01-20T11:33:03.591Z,996.9
2018-01-20T11:43:18.655Z,996.6
2018-01-20T11:53:33.753Z,996.4
2018-01-20T12:03:48.985Z,996.1
2018-01-20T12:14:02.785Z,995.9
2018-01-20T12:34:32.836Z,995.6
2018-01-20T12:44:47.123Z,995.3
2018-01-20T12:55:01.020Z,995.2
2018-01-20T13:15:31.069Z,994.7
2018-01-20T13:25:46.078Z,994.5
2018-01-20T13:36:00.099Z,994.4
2018-01-20T13:46:14.347Z,994.2
2018-01-20T13:56:28.107Z,994.1
2018-01-20T14:06:42.646Z,994
2018-01-20T14:16:58.310Z,993.8
2018-01-20T14:37:26.985Z,993.7
2018-01-20T14:47:42.571Z,993.6
2018-01-20T14:57:56.846Z,993.5
2018-01-20T15:18:25.505Z,993.3
2018-01-20T15:28:39.367Z,993.1
2018-01-20T15:38:53.650Z,993
2018-01-20T15:49:07.373Z,992.9
2018-01-20T15:59:22.477Z,992.8
2018-01-20T16:09:37.486Z,992.9
2018-01-20T16:19:52.616Z,992.9
2018-01-20T16:30:07.210Z,992.8
2018-01-20T16:40:21.525Z,992.8
2018-01-20T16:50:35.337Z,992.9
2018-01-20T17:00:49.748Z,993
2018-01-20T17:11:05.142Z,993
2018-01-20T17:21:19.829Z,993.1
2018-01-20T17:31:33.582Z,993.1
2018-01-20T17:41:47.715Z,993.1
2018-01-20T17:52:02.738Z,993
2018-01-20T18:02:17.698Z,993.1
2018-01-20T18:12:31.405Z,993
2018-01-20T18:33:01.121Z,993
2018-01-20T18:43:15.226Z,993.1
2018-01-20T18:53:28.945Z,993.2
2018-01-20T19:13:56.979Z,993.2
2018-01-20T19:24:12.326Z,993.2
2018-01-20T19:34:26.198Z,993.5
2018-01-20T19:44:40.757Z,993.7
2018-01-20T19:54:55.244Z,993.8
2018-01-20T20:05:09.424Z,993.8
2018-01-20T20:15:23.597Z,993.9
2018-01-20T20:25:37.911Z,993.9
2018-01-20T20:46:05.589Z,994.1
2018-01-20T21:06:34.210Z,994.2
2018-01-20T21:27:01.715Z,994.6
2018-01-20T21:37:16.592Z,994.7
2018-01-20T21:47:31.737Z,995
2018-01-20T21:57:47.097Z,995.1
2018-01-20T22:08:01.008Z,995.1
2018-01-20T22:18:14.932Z,995.3
2018-01-20T22:28:29.544Z,995.3
2018-01-20T22:38:44.760Z,995.4
2018-01-20T22:49:00.228Z,995.5
2018-01-20T22:59:14.949Z,995.7
2018-01-20T23:09:28.815Z,995.8
2018-01-20T23:19:42.501Z,996
2018-01-20T23:29:56.663Z,996.2
2018-01-20T23:40:11.669Z,996.4
2018-01-20T23:50:26.816Z,996.5
